Time;durP1;ratioP1;P1;durP2;ratioP2;P2;SDS_P1;SDS_P2;PMS_P1;PMS_P2;Temp;Humidity;BMP_temperature;BMP_pressure;BME280_temperature;BME280_humidity;BME280_pressure;Samples;Min_cycle;Max_cycle;Signal;HPM_P1;HPM_P2
2021/03/22 00:00:36;;;;;;;16.95;11.50;;;;;;;-0.92;73.75;98550.24;1826658;78;21005;-62
2021/03/22 00:03:05;;;;;;;14.38;11.22;;;;;;;-0.84;73.54;98551.02;1826587;78;21132;-61
2021/03/22 00:05:34;;;;;;;15.03;11.30;;;;;;;-0.77;73.23;98552.20;1826695;78;21545;-62
2021/03/22 00:08:01;;;;;;;13.75;11.65;;;;;;;-0.73;73.05;98555.56;1826644;78;21552;-62
2021/03/22 00:10:31;;;;;;;14.43;11.43;;;;;;;-0.70;72.80;98550.00;1826516;78;21824;-62
2021/03/22 00:13:00;;;;;;;17.20;11.33;;;;;;;-0.64;72.60;98550.80;1826556;78;21060;-62
2021/03/22 00:15:31;;;;;;;16.55;11.60;;;;;;;-0.62;72.38;98544.81;1826388;78;21087;-61
2021/03/22 00:17:59;;;;;;;18.95;12.30;;;;;;;-0.60;72.15;98537.14;1826709;78;21478;-62
2021/03/22 00:20:29;;;;;;;17.98;11.88;;;;;;;-0.57;71.87;98536.64;1826547;78;21060;-62
2021/03/22 00:22:56;;;;;;;18.98;11.85;;;;;;;-0.50;71.56;98537.00;1826525;78;21088;-62
2021/03/22 00:25:26;;;;;;;15.03;11.30;;;;;;;-0.45;71.08;98537.80;1826507;78;21083;-62
2021/03/22 00:27:53;;;;;;;14.58;10.82;;;;;;;-0.42;70.76;98533.08;1826496;78;21552;-61
2021/03/22 00:30:26;;;;;;;15.55;10.88;;;;;;;-0.39;70.44;98531.31;1826561;78;21073;-62
2021/03/22 00:32:53;;;;;;;13.58;10.13;;;;;;;-0.34;69.85;98526.15;1826719;78;21360;-62
2021/03/22 00:35:21;;;;;;;14.03;11.10;;;;;;;-0.34;69.85;98526.15;1826259;78;21846;-62
2021/03/22 00:37:48;;;;;;;13.75;11.05;;;;;;;-0.32;69.77;98526.13;1826537;78;21045;-61
2021/03/22 00:40:18;;;;;;;13.85;11.08;;;;;;;-0.31;69.72;98519.73;1826484;78;21481;-62
2021/03/22 00:42:45;;;;;;;46.25;13.93;;;;;;;-0.30;69.51;98521.85;1826527;77;21081;-61
2021/03/22 00:45:15;;;;;;;17.80;11.40;;;;;;;-0.31;69.48;98517.60;1826650;78;21378;-61
2021/03/22 00:47:43;;;;;;;44.73;15.90;;;;;;;-0.30;69.49;98511.62;1826538;78;21556;-61
2021/03/22 00:50:14;;;;;;;18.45;13.25;;;;;;;-0.30;69.47;98510.35;1826523;78;21152;-61
2021/03/22 00:52:42;;;;;;;18.17;13.35;;;;;;;-0.30;69.41;98515.46;1826226;78;21137;-62
2021/03/22 00:55:11;;;;;;;15.98;12.68;;;;;;;-0.30;69.42;98508.64;1826516;78;21136;-62
2021/03/22 00:57:38;;;;;;;14.95;11.73;;;;;;;-0.29;69.38;98502.67;1826575;78;21352;-62
2021/03/22 01:00:09;;;;;;;20.12;12.95;;;;;;;-0.28;69.37;98499.25;1826460;78;20938;-62
2021/03/22 01:02:36;;;;;;;15.53;11.20;;;;;;;-0.28;69.45;98507.34;1826645;78;21508;-62
2021/03/22 01:05:06;;;;;;;15.35;12.25;;;;;;;-0.25;69.56;98500.49;1826534;78;21100;-62
2021/03/22 01:07:34;;;;;;;17.52;11.90;;;;;;;-0.21;69.66;98492.36;1826605;78;21536;-62
2021/03/22 01:10:01;;;;;;;17.77;12.33;;;;;;;-0.17;69.59;98496.53;1826526;78;21364;-62
2021/03/22 01:12:29;;;;;;;17.73;12.45;;;;;;;-0.16;69.57;98491.40;1826517;78;21490;-62
2021/03/22 01:14:57;;;;;;;14.53;11.80;;;;;;;-0.13;69.50;98490.52;1826453;78;21049;-62
2021/03/22 01:17:25;;;;;;;19.02;12.58;;;;;;;-0.12;69.53;98487.94;1826503;78;21117;-62
2021/03/22 01:19:52;;;;;;;16.70;12.25;;;;;;;-0.11;69.55;98486.23;1826476;78;21107;-62
2021/03/22 01:22:20;;;;;;;15.72;12.80;;;;;;;-0.12;69.48;98487.09;1826493;78;21372;-62
2021/03/22 01:24:48;;;;;;;16.62;12.98;;;;;;;-0.10;69.45;98488.77;1826426;78;20894;-62
2021/03/22 01:27:15;;;;;;;17.35;11.50;;;;;;;-0.10;69.45;98484.94;1826473;78;21045;-62
2021/03/22 01:29:44;;;;;;;17.27;13.22;;;;;;;-0.08;69.45;98492.15;1826479;78;21819;-62
2021/03/22 01:32:12;;;;;;;21.82;14.28;;;;;;;-0.06;69.54;98480.19;1826523;78;21116;-62
2021/03/22 01:34:40;;;;;;;15.60;12.58;;;;;;;-0.03;69.50;98481.86;1826291;78;21612;-62
2021/03/22 01:37:08;;;;;;;47.15;14.75;;;;;;;-0.04;69.47;98475.91;1826481;78;21119;-62
2021/03/22 01:39:37;;;;;;;16.62;12.50;;;;;;;-0.05;69.59;98481.04;1826510;78;21504;-62
2021/03/22 01:42:33;;;;;;;17.75;12.60;;;;;;;-0.07;69.74;98475.09;1826479;77;21112;-62
2021/03/22 01:45:04;;;;;;;15.30;11.28;;;;;;;-0.08;69.79;98472.13;1826472;78;21168;-63
2021/03/22 01:47:33;;;;;;;;;;;;;;;-0.11;69.83;98470.89;1798777;78;21366;-63
2021/03/22 01:50:21;;;;;;;17.67;12.75;;;;;;;-0.11;69.88;98473.45;1826426;78;20197;-63
2021/03/22 01:52:49;;;;;;;17.25;12.15;;;;;;;-0.15;69.99;98474.36;1826305;78;21063;-63
2021/03/22 01:55:19;;;;;;;24.07;13.05;;;;;;;-0.18;70.13;98471.41;1826390;78;21064;-63
2021/03/22 01:57:47;;;;;;;16.07;12.35;;;;;;;-0.20;70.23;98464.66;1826512;78;21061;-63
2021/03/22 02:00:28;;;;;;;18.05;12.90;;;;;;;-0.21;70.20;98458.70;1826479;78;21193;-63
2021/03/22 02:03:04;;;;;;;34.95;14.33;;;;;;;-0.21;70.26;98454.87;1796901;78;21052;-63
2021/03/22 02:05:35;;;;;;;20.20;13.10;;;;;;;-0.23;70.41;98459.16;1826478;78;21104;-61
2021/03/22 02:08:16;;;;;;;21.27;14.03;;;;;;;-0.25;70.46;98458.33;1826535;78;21148;-61
2021/03/22 02:10:52;;;;;;;14.47;12.00;;;;;;;-0.25;70.59;98453.66;1873588;76;22108;-62
2021/03/22 02:13:30;;;;;;;33.53;13.72;;;;;;;-0.33;70.65;98458.02;1841602;78;21486;-62
2021/03/22 02:16:12;;;;;;;17.67;13.55;;;;;;;-0.36;70.72;98455.91;1841616;78;22370;-62
2021/03/22 02:19:49;;;;;;;91.00;16.60;;;;;;;-0.36;70.86;98442.29;1872048;75;22824;-62
2021/03/22 02:22:41;;;;;;;24.02;12.37;;;;;;;-0.38;70.94;98443.59;1777317;80;20926;-62
2021/03/22 02:25:57;;;;;;;25.97;12.85;;;;;;;-0.32;71.05;98432.88;1758356;80;21292;-62
2021/03/22 02:29:16;;;;;;;40.78;13.65;;;;;;;-0.29;71.06;98431.56;1742484;82;21135;-62
2021/03/22 02:32:38;;;;;;;15.80;12.60;;;;;;;-0.30;70.96;98427.31;1793318;80;20928;-62
2021/03/22 02:35:16;;;;;;;14.28;11.40;;;;;;;-0.31;70.82;98428.18;1772621;80;21075;-62
2021/03/22 02:37:59;;;;;;;14.47;10.75;;;;;;;-0.36;70.57;98426.96;1776807;80;21170;-62
2021/03/22 02:40:40;;;;;;;21.40;11.63;;;;;;;-0.42;70.51;98429.20;1770121;80;21580;-62
2021/03/22 02:43:08;;;;;;;15.40;11.43;;;;;;;-0.51;70.59;98426.75;1727222;82;21086;-62
2021/03/22 02:45:41;;;;;;;17.02;11.45;;;;;;;-0.58;70.71;98425.14;1775159;80;21076;-61
2021/03/22 02:48:19;;;;;;;43.92;13.62;;;;;;;-0.64;70.87;98425.67;1813063;78;21161;-62
2021/03/22 02:50:50;;;;;;;17.95;12.33;;;;;;;-0.67;71.04;98426.98;1811255;78;21067;-61
2021/03/22 02:53:41;;;;;;;15.35;11.20;;;;;;;-0.75;71.31;98424.09;1755109;78;21369;-62
2021/03/22 02:59:35;;;;;;;64.72;15.53;;;;;;;-0.85;71.69;98421.69;1743688;81;21064;-62
2021/03/22 03:02:04;;;;;;;46.42;13.75;;;;;;;-0.93;71.86;98421.77;1719517;81;21606;-62
2021/03/22 03:04:37;;;;;;;56.95;14.10;;;;;;;-0.98;72.04;98428.64;1757710;79;21067;-62
2021/03/22 03:07:08;;;;;;;40.60;12.68;;;;;;;-1.05;72.19;98431.71;1759626;80;21434;-63
2021/03/22 03:09:39;;;;;;;16.10;12.05;;;;;;;-1.12;72.34;98425.41;1766447;80;21064;-63
2021/03/22 03:12:24;;;;;;;24.98;13.10;;;;;;;-1.19;72.50;98428.45;1746391;82;21122;-62
2021/03/22 03:14:55;;;;;;;27.85;13.28;;;;;;;-1.25;72.64;98427.70;1773288;79;20954;-63
2021/03/22 03:17:25;;;;;;;30.68;13.48;;;;;;;-1.35;72.80;98418.01;1774804;80;21075;-63
2021/03/22 03:19:53;;;;;;;36.48;15.40;;;;;;;-1.41;73.06;98416.39;1763947;80;21198;-62
2021/03/22 03:22:22;;;;;;;22.10;13.38;;;;;;;-1.47;73.29;98424.52;1776370;80;21103;-63
2021/03/22 03:24:50;;;;;;;25.45;13.35;;;;;;;-1.53;73.66;98425.84;1769417;80;21124;-63
2021/03/22 03:27:18;;;;;;;22.42;13.30;;;;;;;-1.60;73.99;98420.41;1783424;80;21084;-63
2021/03/22 03:29:46;;;;;;;26.42;12.95;;;;;;;-1.68;74.31;98417.08;1776366;80;21149;-63
2021/03/22 03:32:17;;;;;;;107.15;20.68;;;;;;;-1.74;74.57;98421.80;1751831;80;22007;-63
2021/03/22 03:34:44;;;;;;;35.33;12.55;;;;;;;-1.82;74.78;98416.79;1774649;80;21496;-63
2021/03/22 03:37:12;;;;;;;85.53;15.48;;;;;;;-1.89;75.01;98421.52;1777987;80;21072;-63
2021/03/22 03:39:40;;;;;;;72.62;14.73;;;;;;;-1.95;75.28;98421.55;1781361;80;21158;-63
2021/03/22 03:42:08;;;;;;;28.60;12.58;;;;;;;-1.97;75.47;98423.70;1748654;80;21134;-62
2021/03/22 03:44:37;;;;;;;28.90;12.07;;;;;;;-1.98;75.55;98422.00;1766859;80;21353;-63
2021/03/22 03:47:06;;;;;;;20.32;11.40;;;;;;;-2.01;75.63;98421.63;1781201;79;21096;-63
2021/03/22 03:49:33;;;;;;;28.95;13.03;;;;;;;-2.02;75.66;98421.64;1781261;80;21088;-63
2021/03/22 03:52:04;;;;;;;41.50;13.03;;;;;;;-2.06;75.69;98413.17;1761014;80;21072;-63
2021/03/22 03:54:32;;;;;;;22.73;12.07;;;;;;;-2.05;75.72;98412.74;1781294;80;21049;-63
2021/03/22 03:57:00;;;;;;;24.87;12.73;;;;;;;-2.07;75.85;98408.08;1760254;80;22465;-63
2021/03/22 03:59:28;;;;;;;42.38;13.48;;;;;;;-2.06;75.92;98408.50;1771080;80;21591;-63
2021/03/22 04:01:55;;;;;;;43.98;13.10;;;;;;;-2.08;75.92;98417.42;1746960;80;21066;-63
2021/03/22 04:04:23;;;;;;;15.18;10.43;;;;;;;-2.11;75.88;98414.90;1774913;80;21081;-63
2021/03/22 04:06:50;;;;;;;20.48;12.75;;;;;;;-2.14;75.80;98417.04;1768029;80;21163;-63
2021/03/22 04:09:20;;;;;;;21.55;11.70;;;;;;;-2.17;75.76;98417.05;1768001;80;22226;-63
2021/03/22 04:11:50;;;;;;;17.25;11.75;;;;;;;-2.18;75.99;98411.97;1781002;80;21160;-63
2021/03/22 04:14:23;;;;;;;19.12;11.25;;;;;;;-2.15;76.30;98407.70;1776427;80;21556;-62
2021/03/22 04:16:51;;;;;;;15.85;11.53;;;;;;;-2.11;76.25;98412.35;1781298;80;21465;-62
2021/03/22 04:19:19;;;;;;;17.75;12.35;;;;;;;-2.11;76.18;98409.38;1781260;80;21152;-63
2021/03/22 04:21:47;;;;;;;17.60;12.80;;;;;;;-2.09;76.14;98406.39;1781204;80;22766;-63
2021/03/22 04:24:15;;;;;;;21.77;13.22;;;;;;;-2.06;76.17;98404.68;1774359;80;21571;-63
2021/03/22 04:26:42;;;;;;;45.83;16.52;;;;;;;-2.00;76.25;98405.48;1775426;80;21060;-63
2021/03/22 04:29:11;;;;;;;32.10;15.50;;;;;;;-1.91;76.28;98415.58;1781211;80;21156;-63
2021/03/22 04:31:38;;;;;;;35.43;14.53;;;;;;;-1.75;76.15;98403.54;1781188;80;21136;-63
2021/03/22 04:34:06;;;;;;;23.52;13.13;;;;;;;-1.55;75.97;98402.91;1773522;80;21383;-63
2021/03/22 04:36:36;;;;;;;21.95;11.88;;;;;;;-1.32;75.69;98401.83;1750157;80;21079;-63
2021/03/22 04:39:04;;;;;;;22.60;11.85;;;;;;;-1.13;75.14;98400.75;1773616;80;21072;-63
2021/03/22 04:41:33;;;;;;;64.95;15.28;;;;;;;-1.00;74.64;98399.77;1780991;80;21159;-63
2021/03/22 04:44:01;;;;;;;22.05;13.30;;;;;;;-0.90;74.06;98403.03;1760994;80;21067;-63
2021/03/22 04:46:28;;;;;;;22.40;13.72;;;;;;;-0.85;73.58;98408.50;1752082;80;21383;-63
2021/03/22 04:48:57;;;;;;;23.30;14.95;;;;;;;-0.88;73.29;98409.81;1744225;82;21159;-63
2021/03/22 04:51:25;;;;;;;39.78;15.80;;;;;;;-0.90;73.20;98405.58;1773400;80;21070;-63
2021/03/22 04:53:52;;;;;;;75.50;17.65;;;;;;;-0.93;73.11;98401.78;1775130;80;21634;-63
2021/03/22 04:56:21;;;;;;;71.00;18.95;;;;;;;-0.94;73.18;98398.39;1757331;80;21535;-63
2021/03/22 04:58:48;;;;;;;95.72;20.43;;;;;;;-0.87;73.31;98397.45;1757130;80;22227;-63
2021/03/22 05:01:16;;;;;;;77.82;18.23;;;;;;;-0.77;73.47;98402.00;1757137;80;21605;-63
2021/03/22 05:03:44;;;;;;;51.73;15.65;;;;;;;-0.65;73.47;98397.17;1758598;80;21072;-63
2021/03/22 05:06:12;;;;;;;62.55;15.35;;;;;;;-0.50;73.36;98398.23;1768883;80;21076;-60
2021/03/22 05:08:40;;;;;;;44.38;13.32;;;;;;;-0.36;73.22;98395.03;1746876;80;21487;-63
2021/03/22 05:11:08;;;;;;;48.35;13.95;;;;;;;-0.20;72.67;98391.83;1781165;80;21200;-63
2021/03/22 05:13:37;;;;;;;21.60;10.80;;;;;;;-0.07;72.38;98390.75;1773784;80;21143;-63
2021/03/22 05:16:05;;;;;;;20.20;11.25;;;;;;;0.08;71.94;98384.11;1766489;80;21039;-63
2021/03/22 05:18:32;;;;;;;33.40;12.50;;;;;;;0.27;71.34;98380.80;1761715;80;21087;-60
2021/03/22 05:21:04;;;;;;;18.35;10.98;;;;;;;0.41;70.87;98378.82;1760937;80;21055;-63
2021/03/22 05:23:35;;;;;;;89.62;16.57;;;;;;;0.52;69.95;98391.43;1754834;80;22267;-64
2021/03/22 05:26:03;;;;;;;32.00;12.13;;;;;;;0.55;69.48;98389.66;1767230;80;21095;-63
2021/03/22 05:28:32;;;;;;;13.95;9.55;;;;;;;0.57;69.37;98389.20;1774972;80;21489;-63
2021/03/22 05:30:59;;;;;;;53.17;13.03;;;;;;;0.64;68.98;98386.08;1753092;80;21139;-63
2021/03/22 05:33:27;;;;;;;24.02;12.00;;;;;;;0.64;68.83;98383.52;1744093;80;21106;-63
2021/03/22 05:35:58;;;;;;;37.30;12.45;;;;;;;0.64;68.77;98375.41;1765568;80;21380;-63
2021/03/22 05:38:25;;;;;;;70.12;15.23;;;;;;;0.69;68.78;98375.32;1781062;80;21099;-63
2021/03/22 05:40:57;;;;;;;135.25;20.62;;;;;;;0.74;68.68;98373.52;1781019;80;21489;-63
2021/03/22 05:43:52;;;;;;;71.05;16.87;;;;;;;0.83;68.69;98373.77;1781313;80;21659;-62
2021/03/22 05:46:50;;;;;;;65.03;16.10;;;;;;;0.93;68.65;98368.44;1748909;80;21087;-63
2021/03/22 05:49:58;;;;;;;129.45;19.50;;;;;;;1.05;68.60;98367.33;1780546;80;21383;-62
2021/03/22 05:52:51;;;;;;;109.25;18.15;;;;;;;1.16;68.25;98369.68;1775554;80;21717;-62
2021/03/22 05:55:56;;;;;;;76.62;16.93;;;;;;;1.24;67.62;98373.75;1763829;80;21067;-63
2021/03/22 05:59:04;;;;;;;44.15;12.75;;;;;;;1.32;67.12;98373.59;1742516;81;21196;-62
2021/03/22 06:01:49;;;;;;;86.63;16.97;;;;;;;1.40;66.53;98388.34;1731251;81;21665;-62
2021/03/22 06:04:40;;;;;;;91.32;18.52;;;;;;;1.48;66.38;98376.65;1743380;81;21198;-62
2021/03/22 06:07:08;;;;;;;110.22;20.12;;;;;;;1.55;66.26;98375.20;1714481;81;21118;-62
2021/03/22 06:09:41;;;;;;;74.22;15.72;;;;;;;1.65;66.04;98375.38;1723044;81;21200;-62
2021/03/22 06:12:21;;;;;;;56.33;14.07;;;;;;;1.74;65.46;98376.91;1715374;81;21118;-62
2021/03/22 06:14:54;;;;;;;75.80;16.73;;;;;;;1.82;65.10;98380.55;1744827;81;21123;-62
2021/03/22 06:17:31;;;;;;;;;;;;;;;1.88;64.71;98390.23;1740914;81;21368;-62
2021/03/22 06:20:01;;;;;;;48.75;14.30;;;;;;;1.92;64.28;98402.55;1691255;83;20218;-62
2021/03/22 06:22:30;;;;;;;38.20;16.35;;;;;;;1.92;64.41;98396.98;1697848;83;21127;-62
2021/03/22 06:25:13;;;;;;;91.12;18.05;;;;;;;1.94;64.02;98405.92;1689156;83;21190;-63
2021/03/22 06:27:40;;;;;;;65.92;17.60;;;;;;;1.97;64.12;98404.12;1697055;83;21606;-62
2021/03/22 06:30:14;;;;;;;20.92;12.95;;;;;;;2.02;63.95;98392.02;1693822;83;21401;-62
2021/03/22 06:32:44;;;;;;;94.28;22.37;;;;;;;2.07;64.06;98388.91;1678583;83;21159;-62
2021/03/22 06:35:26;;;;;;;65.60;20.02;;;;;;;2.16;64.17;98392.98;1702260;83;21480;-63
2021/03/22 06:37:53;;;;;;;48.73;16.62;;;;;;;2.25;64.25;98391.45;1711694;83;21496;-62
2021/03/22 06:40:31;;;;;;;53.15;17.05;;;;;;;2.38;63.98;98395.84;1705535;83;21091;-61
2021/03/22 06:43:13;;;;;;;26.02;12.73;;;;;;;2.49;63.20;98398.12;1699466;83;21455;-62
2021/03/22 06:45:44;;;;;;;38.83;15.65;;;;;;;2.60;62.62;98390.52;1699917;83;21127;-62
2021/03/22 06:48:20;;;;;;;139.80;21.93;;;;;;;2.69;62.05;98390.29;1689543;83;21100;-62
2021/03/22 06:50:52;;;;;;;144.97;22.32;;;;;;;2.84;62.08;98386.45;1709259;83;21135;-63
2021/03/22 06:53:37;;;;;;;106.75;17.30;;;;;;;3.04;61.46;98382.05;1699405;83;21140;-62
2021/03/22 06:56:15;;;;;;;97.53;18.02;;;;;;;3.25;60.31;98384.44;1706391;83;21280;-62
2021/03/22 06:58:43;;;;;;;46.58;14.25;;;;;;;3.48;59.56;98384.59;1711524;83;21134;-63
2021/03/22 07:01:26;;;;;;;18.65;11.65;;;;;;;3.67;58.26;98381.86;1706684;83;21495;-63
2021/03/22 07:03:54;;;;;;;36.28;12.82;;;;;;;3.81;57.58;98385.27;1702967;83;21593;-62
2021/03/22 07:06:24;;;;;;;76.80;16.40;;;;;;;3.94;57.50;98385.30;1695616;83;21121;-62
2021/03/22 07:08:52;;;;;;;104.83;18.55;;;;;;;4.12;57.09;98387.72;1689293;83;21221;-61
2021/03/22 07:11:23;;;;;;;92.20;17.87;;;;;;;4.27;56.67;98385.92;1711590;83;21142;-61
2021/03/22 07:14:00;;;;;;;79.95;15.50;;;;;;;4.44;56.46;98384.06;1707446;83;21218;-63
2021/03/22 07:16:30;;;;;;;62.48;14.90;;;;;;;4.62;56.22;98376.14;1685539;85;21122;-62
2021/03/22 07:19:07;;;;;;;45.78;13.40;;;;;;;4.85;55.69;98376.17;1696821;83;21562;-62
2021/03/22 07:21:46;;;;;;;22.55;11.85;;;;;;;5.03;55.02;98382.41;1711690;83;21449;-62
2021/03/22 07:24:33;;;;;;;29.92;11.70;;;;;;;5.16;54.86;98389.65;1706527;82;21112;-62
2021/03/22 07:27:12;;;;;;;16.52;11.22;;;;;;;5.36;54.32;98386.77;1693940;83;21163;-62
2021/03/22 07:29:53;;;;;;;33.90;13.10;;;;;;;5.47;53.40;98388.48;1707448;83;21103;-62
2021/03/22 07:32:52;;;;;;;123.02;21.50;;;;;;;5.44;53.28;98385.57;1694532;83;21141;-61
2021/03/22 07:35:41;;;;;;;32.20;13.58;;;;;;;5.48;53.54;98388.88;1701231;83;21440;-62
2021/03/22 07:38:34;;;;;;;35.33;11.55;;;;;;;5.65;53.11;98385.20;1698548;83;21135;-63
2021/03/22 07:41:38;;;;;;;35.23;12.85;;;;;;;5.73;52.64;98387.05;1695225;83;21390;-63
2021/03/22 07:44:39;;;;;;;80.90;17.60;;;;;;;5.71;52.08;98390.13;1888507;76;22808;-62
2021/03/22 07:47:40;;;;;;;60.48;15.65;;;;;;;5.64;51.96;98381.38;1843556;77;21110;-63
2021/03/22 07:50:22;;;;;;;52.48;14.07;;;;;;;5.62;51.72;98381.89;1849972;77;22251;-64
2021/03/22 07:53:13;;;;;;;23.25;13.30;;;;;;;5.60;51.72;98381.95;1849671;77;20925;-62
2021/03/22 07:55:58;;;;;;;18.42;11.93;;;;;;;5.61;51.29;98382.34;1849723;77;20909;-63
2021/03/22 07:58:59;;;;;;;21.65;14.15;;;;;;;5.62;50.56;98381.89;1849352;77;21131;-62
2021/03/22 08:01:44;;;;;;;32.73;12.20;;;;;;;5.67;50.03;98382.11;1849712;77;21142;-62
2021/03/22 08:04:36;;;;;;;20.00;11.53;;;;;;;5.67;49.30;98379.53;1849683;77;21355;-64
2021/03/22 08:07:33;;;;;;;27.93;12.35;;;;;;;5.69;49.25;98385.92;1849659;77;21063;-62
2021/03/22 08:10:31;;;;;;;64.15;14.65;;;;;;;5.74;49.67;98384.85;1849574;77;21174;-63
2021/03/22 08:13:22;;;;;;;22.35;12.10;;;;;;;5.85;49.38;98387.00;1819749;77;21059;-64
2021/03/22 08:16:02;;;;;;;15.55;11.33;;;;;;;5.93;49.27;98381.58;1848321;77;21142;-63
2021/03/22 08:18:44;;;;;;;23.22;12.45;;;;;;;6.07;48.72;98388.30;1849211;77;21197;-63
2021/03/22 08:21:22;;;;;;;55.35;15.95;;;;;;;6.13;47.89;98388.06;1845097;77;21181;-63
2021/03/22 08:24:21;;;;;;;29.30;12.53;;;;;;;6.13;47.47;98390.64;1846903;77;21166;-64
2021/03/22 08:26:59;;;;;;;27.32;11.63;;;;;;;6.13;47.09;98393.23;1848389;77;21190;-66
2021/03/22 08:29:33;;;;;;;15.23;9.28;;;;;;;6.16;46.97;98387.95;1818228;77;21174;-63
2021/03/22 08:32:35;;;;;;;101.87;16.32;;;;;;;6.18;46.79;98391.30;1848643;77;21201;-63
2021/03/22 08:35:32;;;;;;;40.90;13.22;;;;;;;6.20;47.27;98390.31;1848725;77;21177;-65
2021/03/22 08:38:06;;;;;;;11.25;10.03;;;;;;;6.26;48.09;98389.23;1849489;77;21139;-65
2021/03/22 08:40:53;;;;;;;17.48;11.28;;;;;;;6.33;47.74;98390.66;1848575;77;21142;-65
2021/03/22 08:43:41;;;;;;;12.53;10.50;;;;;;;6.34;47.96;98387.19;1817192;78;21032;-62
2021/03/22 08:46:20;;;;;;;50.48;12.90;;;;;;;6.37;47.54;98390.09;1819716;78;21381;-63
2021/03/22 08:48:48;;;;;;;37.88;12.15;;;;;;;6.38;47.90;98388.74;1819825;78;21496;-63
2021/03/22 08:51:32;;;;;;;18.67;11.30;;;;;;;6.46;47.98;98382.78;1819580;78;21662;-66
2021/03/22 08:53:59;;;;;;;23.57;11.25;;;;;;;6.50;48.12;98383.05;1819457;78;21043;-62
2021/03/22 08:56:36;;;;;;;32.40;12.60;;;;;;;6.58;48.38;98389.20;1819083;78;21194;-64
2021/03/22 08:59:10;;;;;;;17.20;10.68;;;;;;;6.65;48.22;98385.42;1818578;78;21442;-62
2021/03/22 09:01:39;;;;;;;30.80;11.75;;;;;;;6.68;47.92;98384.00;1819449;78;21091;-62
2021/03/22 09:04:32;;;;;;;17.82;9.73;;;;;;;6.68;48.17;98388.33;1819237;78;21127;-63
2021/03/22 09:07:15;;;;;;;27.90;12.50;;;;;;;6.69;48.02;98386.14;1819374;78;26437;-60
2021/03/22 09:09:45;;;;;;;25.45;12.58;;;;;;;6.65;48.19;98388.00;1819314;78;21043;-64
2021/03/22 09:12:33;;;;;;;23.57;12.28;;;;;;;6.68;48.70;98385.75;1794497;78;21375;-64
2021/03/22 09:15:04;;;;;;;53.70;13.15;;;;;;;6.74;48.52;98385.05;1819154;78;21059;-62
2021/03/22 09:17:54;;;;;;;17.07;9.55;;;;;;;6.79;48.36;98381.81;1768834;78;21074;-65
2021/03/22 09:20:34;;;;;;;24.50;11.90;;;;;;;6.86;47.59;98378.03;1819237;78;21064;-65
2021/03/22 09:23:33;;;;;;;15.70;11.33;;;;;;;6.95;47.63;98376.80;1873088;75;22160;-65
2021/03/22 09:26:03;;;;;;;68.47;14.35;;;;;;;6.94;47.67;98376.42;1825263;78;21208;-64
2021/03/22 09:28:38;;;;;;;15.93;9.48;;;;;;;7.01;47.88;98377.80;1840939;78;21364;-63
2021/03/22 09:31:18;;;;;;;32.83;11.18;;;;;;;7.13;46.24;98372.56;1840546;78;21628;-64
2021/03/22 09:33:54;;;;;;;25.92;10.15;;;;;;;7.20;46.00;98369.61;1840062;77;22168;-63
2021/03/22 09:36:38;;;;;;;27.60;10.05;;;;;;;7.37;45.31;98370.61;1840290;78;21165;-63
2021/03/22 09:39:23;;;;;;;17.85;10.10;;;;;;;7.49;44.85;98374.75;1810038;78;21153;-62
2021/03/22 09:42:06;;;;;;;21.90;9.68;;;;;;;7.54;44.47;98373.25;1824902;78;21360;-62
2021/03/22 09:44:37;;;;;;;15.48;9.80;;;;;;;7.51;44.48;98373.39;1806487;78;21174;-61
2021/03/22 09:47:20;;;;;;;25.20;9.95;;;;;;;7.46;43.84;98371.47;1808235;79;21113;-62
2021/03/22 09:50:14;;;;;;;18.52;9.68;;;;;;;7.41;44.05;98375.55;1776661;79;21099;-62
2021/03/22 09:52:58;;;;;;;22.40;10.20;;;;;;;7.41;44.23;98376.00;1808059;79;21171;-63
2021/03/22 09:55:31;;;;;;;19.23;11.35;;;;;;;7.42;44.24;98377.69;1808391;79;21181;-61
2021/03/22 09:58:01;;;;;;;;;;;;;;;7.43;44.37;98373.73;1811097;78;21482;-62
2021/03/22 10:00:38;;;;;;;29.67;12.90;;;;;;;7.47;44.76;98370.55;1756013;79;20535;-63
2021/03/22 10:03:31;;;;;;;18.37;11.93;;;;;;;7.53;44.81;98368.53;1808521;78;21132;-61
2021/03/22 10:06:03;;;;;;;;;;;;;;;7.66;44.74;98374.41;1811213;79;21073;-64
2021/03/22 10:08:38;;;;;;;17.10;12.37;;;;;;;7.69;44.10;98371.23;1808545;79;21353;-64
2021/03/22 10:11:27;;;;;;;25.82;11.18;;;;;;;7.57;44.75;98377.00;1779317;79;21124;-63
2021/03/22 10:14:00;;;;;;;16.70;10.38;;;;;;;7.57;45.23;98375.70;1808128;79;21113;-64
2021/03/22 10:16:34;;;;;;;;;;;;;;;7.63;45.20;98381.86;1810646;79;21061;-62
2021/03/22 10:19:07;;;;;;;24.65;8.63;;;;;;;7.70;45.78;98379.84;1808128;79;20248;-64
2021/03/22 10:21:52;;;;;;;18.25;9.13;;;;;;;7.85;43.95;98373.47;1805449;78;22278;-63
2021/03/22 10:24:49;;;;;;;19.35;9.25;;;;;;;8.00;43.65;98375.77;1799692;79;21156;-63
2021/03/22 10:27:34;;;;;;;23.75;9.48;;;;;;;8.06;43.71;98384.55;1799186;78;21505;-64
2021/03/22 10:30:13;;;;;;;64.70;12.55;;;;;;;7.97;44.86;98374.66;1799953;78;21198;-63
2021/03/22 10:33:03;;;;;;;13.22;8.43;;;;;;;7.88;44.70;98384.98;1800344;79;21183;-62
2021/03/22 10:35:51;;;;;;;20.57;10.30;;;;;;;7.73;43.59;98382.28;1799212;79;22130;-64
2021/03/22 10:38:29;;;;;;;20.10;8.73;;;;;;;7.55;45.08;98384.83;1799904;79;21501;-63
2021/03/22 10:40:57;;;;;;;11.28;8.15;;;;;;;7.52;45.68;98383.67;1799851;78;21064;-61
2021/03/22 10:43:40;;;;;;;55.08;13.13;;;;;;;7.49;45.60;98379.09;1799824;78;21148;-61
2021/03/22 10:46:22;;;;;;;31.37;11.25;;;;;;;7.53;46.45;98376.75;1799923;79;21044;-63
2021/03/22 10:49:05;;;;;;;40.95;12.10;;;;;;;7.55;46.20;98386.58;1799867;78;21519;-63
2021/03/22 10:51:44;;;;;;;17.05;9.75;;;;;;;7.53;46.45;98380.17;1799366;79;21611;-61
2021/03/22 10:54:18;;;;;;;19.60;10.65;;;;;;;7.44;46.31;98380.59;1799926;79;21616;-62
2021/03/22 10:56:56;;;;;;;14.15;10.75;;;;;;;7.41;47.43;98384.60;1799725;78;21100;-61
2021/03/22 10:59:38;;;;;;;32.73;12.63;;;;;;;7.35;48.73;98395.25;1799931;78;21256;-63
2021/03/22 11:02:46;;;;;;;21.57;11.53;;;;;;;7.24;49.11;98387.13;1799897;79;21302;-63
2021/03/22 11:05:17;;;;;;;38.83;15.15;;;;;;;7.11;49.36;98380.38;1799897;78;21532;-61
2021/03/22 11:08:04;;;;;;;15.85;10.48;;;;;;;6.93;50.16;98377.33;1799861;78;21093;-62
2021/03/22 11:10:35;;;;;;;17.52;9.90;;;;;;;6.88;50.53;98380.55;1799858;79;21092;-61
2021/03/22 11:13:03;;;;;;;20.12;11.20;;;;;;;6.85;50.85;98384.56;1799897;79;21186;-63
2021/03/22 11:15:36;;;;;;;21.12;9.98;;;;;;;6.81;50.55;98376.09;1799830;78;21189;-62
2021/03/22 11:18:07;;;;;;;16.80;10.50;;;;;;;6.81;50.35;98389.47;1799929;78;26411;-61
2021/03/22 11:20:42;;;;;;;85.75;15.45;;;;;;;6.82;50.69;98387.27;1799835;79;21092;-62
2021/03/22 11:23:27;;;;;;;12.88;10.43;;;;;;;6.82;51.24;98380.36;1782064;79;21062;-62
2021/03/22 11:26:01;;;;;;;14.45;10.28;;;;;;;6.83;52.04;98381.20;1807813;79;21085;-62
2021/03/22 11:28:30;;;;;;;26.12;11.05;;;;;;;6.80;52.07;98377.00;1764375;79;21145;-64
2021/03/22 11:31:08;;;;;;;14.90;8.95;;;;;;;6.79;52.04;98369.34;1807731;79;21188;-62
2021/03/22 11:33:42;;;;;;;56.90;13.48;;;;;;;6.76;51.48;98369.47;1807687;79;21117;-62
2021/03/22 11:36:17;;;;;;;36.30;12.13;;;;;;;6.73;51.23;98368.31;1778872;79;21065;-62
2021/03/22 11:38:58;;;;;;;16.25;10.03;;;;;;;6.74;51.54;98379.88;1807784;79;21120;-62
2021/03/22 11:41:42;;;;;;;19.70;10.48;;;;;;;6.76;51.06;98380.66;1807676;78;21355;-63
2021/03/22 11:44:36;;;;;;;40.78;13.48;;;;;;;6.76;52.38;98383.23;1807706;79;21065;-62
2021/03/22 11:47:44;;;;;;;26.82;12.85;;;;;;;6.73;53.29;98377.35;1807775;78;21545;-63
2021/03/22 11:50:38;;;;;;;19.00;10.88;;;;;;;6.67;53.30;98374.57;1758661;81;21160;-62
2021/03/22 11:53:21;;;;;;;23.18;10.78;;;;;;;6.60;52.90;98383.94;1759247;80;21568;-61
2021/03/22 11:56:24;;;;;;;18.75;11.90;;;;;;;6.56;53.11;98379.38;1746705;82;21141;-62
2021/03/22 11:59:23;;;;;;;15.40;10.48;;;;;;;6.58;53.01;98380.60;1752929;80;21173;-64
2021/03/22 12:02:12;;;;;;;20.05;10.48;;;;;;;6.58;53.01;98380.60;1730164;81;21138;-65
2021/03/22 12:04:56;;;;;;;13.30;9.10;;;;;;;6.53;53.08;98384.22;1755853;81;21494;-62
2021/03/22 12:07:45;;;;;;;;;;;;;;;6.40;53.08;98388.20;1757546;81;21153;-63
2021/03/22 12:10:27;;;;;;;17.98;10.48;;;;;;;6.20;54.23;98391.60;1754928;80;20224;-66
2021/03/22 12:12:56;;;;;;;12.23;10.35;;;;;;;6.13;54.24;98394.06;1755337;81;21162;-64